Terminal Aerodrome Forecast
Issued by NWS

Home | Current Version | Previous Version | Text Only | Print | Product List | Glossary On
Versions: 1 2 3 4 5 6 7 8 9 10 11 12 13 14 15 16 17 18 19 20 21 22
000
FTUS42 KMLB 291618 AAB
TAFTIX
TAF AMD
KTIX 291618Z 2916/3012 24008KT P6SM SCT015 SCT120
      TEMPO 2916/2918 BKN015
     FM291800 26010KT P6SM VCTS SCT030CB BKN050 BKN150
     FM300100 25007KT P6SM BKN080 BKN250=

USA.gov is the U.S. government's official web portal to all federal, state and local government web resources and services.